sensor_id;sensor_type;location;lat;lon;timestamp;temperature;humidity
4366;DHT22;2196;47.422;9.656;2023-02-01T00:00:21;3.10;99.90
4366;DHT22;2196;47.422;9.656;2023-02-01T00:02:49;3.10;99.90
4366;DHT22;2196;47.422;9.656;2023-02-01T00:05:16;3.10;99.90
4366;DHT22;2196;47.422;9.656;2023-02-01T00:07:46;3.10;99.90
4366;DHT22;2196;47.422;9.656;2023-02-01T00:10:13;3.00;99.90
4366;DHT22;2196;47.422;9.656;2023-02-01T00:12:40;3.00;99.90
4366;DHT22;2196;47.422;9.656;2023-02-01T00:15:08;2.90;99.90
4366;DHT22;2196;47.422;9.656;2023-02-01T00:17:35;2.90;99.90
4366;DHT22;2196;47.422;9.656;2023-02-01T00:20:04;2.90;99.90
4366;DHT22;2196;47.422;9.656;2023-02-01T00:22:31;2.90;99.90
4366;DHT22;2196;47.422;9.656;2023-02-01T00:24:58;2.80;99.90
4366;DHT22;2196;47.422;9.656;2023-02-01T00:27:25;2.80;99.90
4366;DHT22;2196;47.422;9.656;2023-02-01T00:29:54;2.80;99.90
4366;DHT22;2196;47.422;9.656;2023-02-01T00:32:21;2.70;99.90
4366;DHT22;2196;47.422;9.656;2023-02-01T00:34:51;2.70;99.90
4366;DHT22;2196;47.422;9.656;2023-02-01T00:37:19;2.70;99.90
4366;DHT22;2196;47.422;9.656;2023-02-01T00:39:50;2.70;99.90
4366;DHT22;2196;47.422;9.656;2023-02-01T00:42:17;2.70;99.90
4366;DHT22;2196;47.422;9.656;2023-02-01T00:44:43;2.70;99.90
4366;DHT22;2196;47.422;9.656;2023-02-01T00:47:10;2.80;99.90
4366;DHT22;2196;47.422;9.656;2023-02-01T00:49:37;2.80;99.90
4366;DHT22;2196;47.422;9.656;2023-02-01T00:52:04;2.70;99.90
4366;DHT22;2196;47.422;9.656;2023-02-01T00:54:33;2.70;99.90
4366;DHT22;2196;47.422;9.656;2023-02-01T00:57:01;2.80;99.90
4366;DHT22;2196;47.422;9.656;2023-02-01T00:59:28;2.90;99.90
4366;DHT22;2196;47.422;9.656;2023-02-01T01:01:55;2.90;99.90
4366;DHT22;2196;47.422;9.656;2023-02-01T01:04:22;2.90;99.90
4366;DHT22;2196;47.422;9.656;2023-02-01T01:06:49;2.90;99.90
4366;DHT22;2196;47.422;9.656;2023-02-01T01:09:16;2.90;99.90
4366;DHT22;2196;47.422;9.656;2023-02-01T01:11:44;3.00;99.90
4366;DHT22;2196;47.422;9.656;2023-02-01T01:14:11;3.00;99.90
4366;DHT22;2196;47.422;9.656;2023-02-01T01:16:38;3.00;99.90
4366;DHT22;2196;47.422;9.656;2023-02-01T01:19:05;3.10;99.90
4366;DHT22;2196;47.422;9.656;2023-02-01T01:21:32;3.10;99.90
4366;DHT22;2196;47.422;9.656;2023-02-01T01:23:59;3.20;99.90
4366;DHT22;2196;47.422;9.656;2023-02-01T01:26:28;3.10;99.90
4366;DHT22;2196;47.422;9.656;2023-02-01T01:28:57;3.10;99.90
4366;DHT22;2196;47.422;9.656;2023-02-01T01:31:26;3.20;99.90
4366;DHT22;2196;47.422;9.656;2023-02-01T01:33:54;3.20;99.90
4366;DHT22;2196;47.422;9.656;2023-02-01T01:36:22;3.20;99.90
4366;DHT22;2196;47.422;9.656;2023-02-01T01:38:50;3.20;99.90
4366;DHT22;2196;47.422;9.656;2023-02-01T01:41:19;3.20;99.90
4366;DHT22;2196;47.422;9.656;2023-02-01T01:43:55;3.20;99.90
4366;DHT22;2196;47.422;9.656;2023-02-01T01:46:25;3.20;99.90
4366;DHT22;2196;47.422;9.656;2023-02-01T01:48:58;3.20;99.90
4366;DHT22;2196;47.422;9.656;2023-02-01T01:51:28;3.20;99.90
4366;DHT22;2196;47.422;9.656;2023-02-01T01:54:01;3.20;99.90
4366;DHT22;2196;47.422;9.656;2023-02-01T01:56:30;3.20;99.90
4366;DHT22;2196;47.422;9.656;2023-02-01T01:58:58;3.20;99.90
4366;DHT22;2196;47.422;9.656;2023-02-01T02:01:27;3.10;99.90
4366;DHT22;2196;47.422;9.656;2023-02-01T02:03:54;3.20;99.90
4366;DHT22;2196;47.422;9.656;2023-02-01T02:06:33;3.10;99.90
4366;DHT22;2196;47.422;9.656;2023-02-01T02:09:03;3.20;99.90
4366;DHT22;2196;47.422;9.656;2023-02-01T02:11:30;3.20;99.90
4366;DHT22;2196;47.422;9.656;2023-02-01T02:13:57;3.30;99.90
4366;DHT22;2196;47.422;9.656;2023-02-01T02:17:09;3.40;99.90
4366;DHT22;2196;47.422;9.656;2023-02-01T02:20:17;3.40;99.90
4366;DHT22;2196;47.422;9.656;2023-02-01T02:26:31;3.40;99.90
4366;DHT22;2196;47.422;9.656;2023-02-01T02:32:37;3.40;99.90
4366;DHT22;2196;47.422;9.656;2023-02-01T02:35:14;3.30;99.90
4366;DHT22;2196;47.422;9.656;2023-02-01T02:37:50;3.30;99.90
4366;DHT22;2196;47.422;9.656;2023-02-01T02:40:25;3.30;99.90
4366;DHT22;2196;47.422;9.656;2023-02-01T02:43:03;3.30;99.90
4366;DHT22;2196;47.422;9.656;2023-02-01T02:46:06;3.30;99.90
4366;DHT22;2196;47.422;9.656;2023-02-01T02:48:54;3.20;99.90
4366;DHT22;2196;47.422;9.656;2023-02-01T02:51:29;3.10;99.90
4366;DHT22;2196;47.422;9.656;2023-02-01T02:54:17;3.10;99.90
4366;DHT22;2196;47.422;9.656;2023-02-01T02:57:06;3.00;99.90
4366;DHT22;2196;47.422;9.656;2023-02-01T02:59:52;3.00;99.90
4366;DHT22;2196;47.422;9.656;2023-02-01T03:02:38;2.90;99.90
4366;DHT22;2196;47.422;9.656;2023-02-01T03:05:22;2.90;99.90
4366;DHT22;2196;47.422;9.656;2023-02-01T03:07:57;2.90;99.90
4366;DHT22;2196;47.422;9.656;2023-02-01T03:10:35;2.90;99.90
4366;DHT22;2196;47.422;9.656;2023-02-01T03:13:06;2.90;99.90
4366;DHT22;2196;47.422;9.656;2023-02-01T03:15:38;2.80;99.90
4366;DHT22;2196;47.422;9.656;2023-02-01T03:18:11;2.80;99.90
4366;DHT22;2196;47.422;9.656;2023-02-01T03:20:40;2.80;99.90
4366;DHT22;2196;47.422;9.656;2023-02-01T03:23:11;2.90;99.90
4366;DHT22;2196;47.422;9.656;2023-02-01T03:25:40;3.00;99.90
4366;DHT22;2196;47.422;9.656;2023-02-01T03:28:10;3.00;99.90
4366;DHT22;2196;47.422;9.656;2023-02-01T03:30:41;2.90;99.90
4366;DHT22;2196;47.422;9.656;2023-02-01T03:33:11;2.80;99.90
4366;DHT22;2196;47.422;9.656;2023-02-01T03:35:50;2.80;99.90
4366;DHT22;2196;47.422;9.656;2023-02-01T03:38:24;2.80;99.90
4366;DHT22;2196;47.422;9.656;2023-02-01T03:40:57;2.80;99.90
4366;DHT22;2196;47.422;9.656;2023-02-01T03:43:26;2.70;99.90
4366;DHT22;2196;47.422;9.656;2023-02-01T03:46:00;2.70;99.90
4366;DHT22;2196;47.422;9.656;2023-02-01T03:48:28;2.70;99.90
4366;DHT22;2196;47.422;9.656;2023-02-01T03:50:59;2.70;99.90
4366;DHT22;2196;47.422;9.656;2023-02-01T03:53:30;2.70;99.90
4366;DHT22;2196;47.422;9.656;2023-02-01T03:55:58;2.80;99.90
4366;DHT22;2196;47.422;9.656;2023-02-01T03:58:25;2.70;99.90
4366;DHT22;2196;47.422;9.656;2023-02-01T04:00:54;2.70;99.90
4366;DHT22;2196;47.422;9.656;2023-02-01T04:03:21;2.60;99.90
4366;DHT22;2196;47.422;9.656;2023-02-01T04:05:48;2.60;99.90
4366;DHT22;2196;47.422;9.656;2023-02-01T04:08:15;2.60;99.90
4366;DHT22;2196;47.422;9.656;2023-02-01T04:10:43;2.60;99.90
4366;DHT22;2196;47.422;9.656;2023-02-01T04:13:11;2.60;99.90
4366;DHT22;2196;47.422;9.656;2023-02-01T04:15:38;2.70;99.90
4366;DHT22;2196;47.422;9.656;2023-02-01T04:18:05;2.70;99.90
4366;DHT22;2196;47.422;9.656;2023-02-01T04:20:32;2.80;99.90
4366;DHT22;2196;47.422;9.656;2023-02-01T04:22:59;2.80;99.90
4366;DHT22;2196;47.422;9.656;2023-02-01T04:25:28;2.80;99.90
4366;DHT22;2196;47.422;9.656;2023-02-01T04:27:56;2.80;99.90
4366;DHT22;2196;47.422;9.656;2023-02-01T04:30:23;2.80;99.90
4366;DHT22;2196;47.422;9.656;2023-02-01T04:32:50;2.80;99.90
4366;DHT22;2196;47.422;9.656;2023-02-01T04:35:17;2.80;99.90
4366;DHT22;2196;47.422;9.656;2023-02-01T04:37:44;2.80;99.90
4366;DHT22;2196;47.422;9.656;2023-02-01T04:40:12;2.70;99.90
4366;DHT22;2196;47.422;9.656;2023-02-01T04:42:39;2.70;99.90
4366;DHT22;2196;47.422;9.656;2023-02-01T04:45:08;2.70;99.90
4366;DHT22;2196;47.422;9.656;2023-02-01T04:47:35;2.70;99.90
4366;DHT22;2196;47.422;9.656;2023-02-01T04:50:02;2.80;99.90
4366;DHT22;2196;47.422;9.656;2023-02-01T04:52:31;2.80;99.90
4366;DHT22;2196;47.422;9.656;2023-02-01T04:54:58;2.90;99.90
4366;DHT22;2196;47.422;9.656;2023-02-01T04:57:27;2.90;99.90
4366;DHT22;2196;47.422;9.656;2023-02-01T04:59:54;2.90;99.90
4366;DHT22;2196;47.422;9.656;2023-02-01T05:02:23;2.90;99.90
4366;DHT22;2196;47.422;9.656;2023-02-01T05:04:50;3.00;99.90
4366;DHT22;2196;47.422;9.656;2023-02-01T05:07:17;3.00;99.90
4366;DHT22;2196;47.422;9.656;2023-02-01T05:09:44;2.90;99.90
4366;DHT22;2196;47.422;9.656;2023-02-01T05:12:11;2.90;99.90
4366;DHT22;2196;47.422;9.656;2023-02-01T05:14:55;3.00;99.90
4366;DHT22;2196;47.422;9.656;2023-02-01T05:17:23;3.00;99.90
4366;DHT22;2196;47.422;9.656;2023-02-01T05:19:54;3.00;99.90
4366;DHT22;2196;47.422;9.656;2023-02-01T05:22:21;3.00;99.90
4366;DHT22;2196;47.422;9.656;2023-02-01T05:24:51;3.00;99.90
4366;DHT22;2196;47.422;9.656;2023-02-01T05:27:18;3.10;99.90
4366;DHT22;2196;47.422;9.656;2023-02-01T05:29:48;3.00;99.90
4366;DHT22;2196;47.422;9.656;2023-02-01T05:32:15;2.90;99.90
4366;DHT22;2196;47.422;9.656;2023-02-01T05:34:44;2.90;99.90
4366;DHT22;2196;47.422;9.656;2023-02-01T05:37:10;3.00;99.90
4366;DHT22;2196;47.422;9.656;2023-02-01T05:39:37;3.00;99.90
4366;DHT22;2196;47.422;9.656;2023-02-01T05:42:04;3.00;99.90
4366;DHT22;2196;47.422;9.656;2023-02-01T05:44:31;3.00;99.90
4366;DHT22;2196;47.422;9.656;2023-02-01T05:46:58;3.10;99.90
4366;DHT22;2196;47.422;9.656;2023-02-01T05:49:25;3.00;99.90
4366;DHT22;2196;47.422;9.656;2023-02-01T05:51:54;3.10;99.90
4366;DHT22;2196;47.422;9.656;2023-02-01T05:54:21;3.00;99.90
4366;DHT22;2196;47.422;9.656;2023-02-01T05:56:48;3.00;99.90
4366;DHT22;2196;47.422;9.656;2023-02-01T05:59:15;2.90;99.90
4366;DHT22;2196;47.422;9.656;2023-02-01T06:01:42;2.80;99.90
4366;DHT22;2196;47.422;9.656;2023-02-01T06:04:09;2.70;99.90
4366;DHT22;2196;47.422;9.656;2023-02-01T06:06:35;2.60;99.90
4366;DHT22;2196;47.422;9.656;2023-02-01T06:09:04;2.50;99.90
4366;DHT22;2196;47.422;9.656;2023-02-01T06:11:31;2.50;99.90
4366;DHT22;2196;47.422;9.656;2023-02-01T06:13:59;2.50;99.90
4366;DHT22;2196;47.422;9.656;2023-02-01T06:16:27;2.60;99.90
4366;DHT22;2196;47.422;9.656;2023-02-01T06:18:54;2.50;99.90
4366;DHT22;2196;47.422;9.656;2023-02-01T06:21:21;2.60;99.90
4366;DHT22;2196;47.422;9.656;2023-02-01T06:23:50;2.50;99.90
4366;DHT22;2196;47.422;9.656;2023-02-01T06:26:18;2.60;99.90
4366;DHT22;2196;47.422;9.656;2023-02-01T06:28:45;2.60;99.90
4366;DHT22;2196;47.422;9.656;2023-02-01T06:31:12;2.70;99.90
4366;DHT22;2196;47.422;9.656;2023-02-01T06:33:39;2.60;99.90
4366;DHT22;2196;47.422;9.656;2023-02-01T06:36:09;2.60;99.90
4366;DHT22;2196;47.422;9.656;2023-02-01T06:38:37;2.60;99.90
4366;DHT22;2196;47.422;9.656;2023-02-01T06:41:05;2.60;99.90
4366;DHT22;2196;47.422;9.656;2023-02-01T06:43:34;2.60;99.90
4366;DHT22;2196;47.422;9.656;2023-02-01T06:46:01;2.60;99.90
4366;DHT22;2196;47.422;9.656;2023-02-01T06:48:29;2.60;99.90
4366;DHT22;2196;47.422;9.656;2023-02-01T06:50:56;2.50;99.90
4366;DHT22;2196;47.422;9.656;2023-02-01T06:53:23;2.60;99.90
4366;DHT22;2196;47.422;9.656;2023-02-01T06:55:54;2.60;99.90
4366;DHT22;2196;47.422;9.656;2023-02-01T06:58:22;2.60;99.90
4366;DHT22;2196;47.422;9.656;2023-02-01T07:00:50;2.60;99.90
4366;DHT22;2196;47.422;9.656;2023-02-01T07:03:19;2.60;99.90
4366;DHT22;2196;47.422;9.656;2023-02-01T07:05:46;2.60;99.90
4366;DHT22;2196;47.422;9.656;2023-02-01T07:08:13;2.60;99.90
4366;DHT22;2196;47.422;9.656;2023-02-01T07:10:40;2.60;99.90
4366;DHT22;2196;47.422;9.656;2023-02-01T07:13:07;2.50;99.90
4366;DHT22;2196;47.422;9.656;2023-02-01T07:15:34;2.60;99.90
4366;DHT22;2196;47.422;9.656;2023-02-01T07:18:03;2.60;99.90
4366;DHT22;2196;47.422;9.656;2023-02-01T07:20:30;2.60;99.90
4366;DHT22;2196;47.422;9.656;2023-02-01T07:22:57;2.60;99.90
4366;DHT22;2196;47.422;9.656;2023-02-01T07:25:24;2.60;99.90
4366;DHT22;2196;47.422;9.656;2023-02-01T07:27:51;2.60;99.90
4366;DHT22;2196;47.422;9.656;2023-02-01T07:30:18;2.60;99.90
4366;DHT22;2196;47.422;9.656;2023-02-01T07:32:45;2.70;99.90
4366;DHT22;2196;47.422;9.656;2023-02-01T07:35:14;2.70;99.90
4366;DHT22;2196;47.422;9.656;2023-02-01T07:37:41;2.70;99.90
4366;DHT22;2196;47.422;9.656;2023-02-01T07:40:09;2.70;99.90
4366;DHT22;2196;47.422;9.656;2023-02-01T07:42:36;2.80;99.90
4366;DHT22;2196;47.422;9.656;2023-02-01T07:45:04;2.80;99.90
4366;DHT22;2196;47.422;9.656;2023-02-01T07:47:31;2.80;99.90
4366;DHT22;2196;47.422;9.656;2023-02-01T07:49:58;2.80;99.90
4366;DHT22;2196;47.422;9.656;2023-02-01T07:52:28;2.80;99.90
4366;DHT22;2196;47.422;9.656;2023-02-01T07:54:56;2.80;99.90
4366;DHT22;2196;47.422;9.656;2023-02-01T07:57:24;2.90;99.90
4366;DHT22;2196;47.422;9.656;2023-02-01T07:59:51;2.90;99.90
4366;DHT22;2196;47.422;9.656;2023-02-01T08:02:36;3.00;99.90
4366;DHT22;2196;47.422;9.656;2023-02-01T08:05:03;2.90;99.90
4366;DHT22;2196;47.422;9.656;2023-02-01T08:07:31;3.00;99.90
4366;DHT22;2196;47.422;9.656;2023-02-01T08:09:58;3.00;99.90
4366;DHT22;2196;47.422;9.656;2023-02-01T08:12:26;3.10;99.90
4366;DHT22;2196;47.422;9.656;2023-02-01T08:14:54;3.00;99.90
4366;DHT22;2196;47.422;9.656;2023-02-01T08:17:22;2.90;99.90
4366;DHT22;2196;47.422;9.656;2023-02-01T08:19:49;2.90;99.90
4366;DHT22;2196;47.422;9.656;2023-02-01T08:22:16;2.90;99.90
4366;DHT22;2196;47.422;9.656;2023-02-01T08:24:47;2.90;99.90
4366;DHT22;2196;47.422;9.656;2023-02-01T08:27:14;2.90;99.90
4366;DHT22;2196;47.422;9.656;2023-02-01T08:29:41;2.90;99.90
4366;DHT22;2196;47.422;9.656;2023-02-01T08:32:08;2.90;99.90
4366;DHT22;2196;47.422;9.656;2023-02-01T08:34:35;2.90;99.90
4366;DHT22;2196;47.422;9.656;2023-02-01T08:37:02;2.90;99.90
4366;DHT22;2196;47.422;9.656;2023-02-01T08:39:29;3.00;99.90
4366;DHT22;2196;47.422;9.656;2023-02-01T08:41:57;2.90;99.90
4366;DHT22;2196;47.422;9.656;2023-02-01T08:44:42;3.00;99.90
4366;DHT22;2196;47.422;9.656;2023-02-01T08:47:09;3.00;99.90
4366;DHT22;2196;47.422;9.656;2023-02-01T08:49:36;3.10;99.90
4366;DHT22;2196;47.422;9.656;2023-02-01T08:52:04;3.20;99.90
4366;DHT22;2196;47.422;9.656;2023-02-01T08:54:31;3.30;99.90
4366;DHT22;2196;47.422;9.656;2023-02-01T08:56:59;3.30;99.90
4366;DHT22;2196;47.422;9.656;2023-02-01T08:59:26;3.30;99.90
4366;DHT22;2196;47.422;9.656;2023-02-01T09:01:53;3.30;99.90
4366;DHT22;2196;47.422;9.656;2023-02-01T09:04:21;3.50;99.90
4366;DHT22;2196;47.422;9.656;2023-02-01T09:06:48;3.50;99.90
4366;DHT22;2196;47.422;9.656;2023-02-01T09:09:14;3.50;99.90
4366;DHT22;2196;47.422;9.656;2023-02-01T09:11:41;3.50;99.90
4366;DHT22;2196;47.422;9.656;2023-02-01T09:14:10;3.60;99.90
4366;DHT22;2196;47.422;9.656;2023-02-01T09:16:37;3.70;99.90
4366;DHT22;2196;47.422;9.656;2023-02-01T09:19:04;3.70;99.90
4366;DHT22;2196;47.422;9.656;2023-02-01T09:21:31;3.60;99.90
4366;DHT22;2196;47.422;9.656;2023-02-01T09:23:58;3.60;99.90
4366;DHT22;2196;47.422;9.656;2023-02-01T09:26:25;3.60;99.90
4366;DHT22;2196;47.422;9.656;2023-02-01T09:28:52;3.60;99.90
4366;DHT22;2196;47.422;9.656;2023-02-01T09:31:21;3.60;99.90
4366;DHT22;2196;47.422;9.656;2023-02-01T09:33:48;3.70;99.90
4366;DHT22;2196;47.422;9.656;2023-02-01T09:36:15;3.70;99.90
4366;DHT22;2196;47.422;9.656;2023-02-01T09:38:42;3.80;99.90
4366;DHT22;2196;47.422;9.656;2023-02-01T09:41:26;3.80;99.90
4366;DHT22;2196;47.422;9.656;2023-02-01T09:44:03;3.80;99.90
4366;DHT22;2196;47.422;9.656;2023-02-01T09:46:34;3.90;99.90
4366;DHT22;2196;47.422;9.656;2023-02-01T09:49:04;4.00;99.90
4366;DHT22;2196;47.422;9.656;2023-02-01T09:51:36;4.00;99.90
4366;DHT22;2196;47.422;9.656;2023-02-01T09:54:05;4.10;99.90
4366;DHT22;2196;47.422;9.656;2023-02-01T09:56:41;4.10;99.90
4366;DHT22;2196;47.422;9.656;2023-02-01T09:59:23;4.00;99.90
4366;DHT22;2196;47.422;9.656;2023-02-01T10:01:54;4.10;99.90
4366;DHT22;2196;47.422;9.656;2023-02-01T10:04:21;4.10;99.90
4366;DHT22;2196;47.422;9.656;2023-02-01T10:07:05;4.10;99.90
4366;DHT22;2196;47.422;9.656;2023-02-01T10:09:47;4.00;99.90
4366;DHT22;2196;47.422;9.656;2023-02-01T10:15:30;4.10;99.90
4366;DHT22;2196;47.422;9.656;2023-02-01T10:18:13;4.10;99.90
4366;DHT22;2196;47.422;9.656;2023-02-01T10:20:52;4.20;99.90
4366;DHT22;2196;47.422;9.656;2023-02-01T10:23:37;4.30;99.90
4366;DHT22;2196;47.422;9.656;2023-02-01T10:26:12;4.30;99.90
4366;DHT22;2196;47.422;9.656;2023-02-01T10:28:41;4.20;99.90
4366;DHT22;2196;47.422;9.656;2023-02-01T10:31:09;4.20;99.90
4366;DHT22;2196;47.422;9.656;2023-02-01T10:33:42;4.20;99.90
4366;DHT22;2196;47.422;9.656;2023-02-01T10:36:15;4.20;99.90
4366;DHT22;2196;47.422;9.656;2023-02-01T10:38:44;4.10;99.90
4366;DHT22;2196;47.422;9.656;2023-02-01T10:41:13;4.20;99.90
4366;DHT22;2196;47.422;9.656;2023-02-01T10:43:41;4.20;99.90
4366;DHT22;2196;47.422;9.656;2023-02-01T10:46:09;4.10;99.90
4366;DHT22;2196;47.422;9.656;2023-02-01T10:48:38;4.20;99.90
4366;DHT22;2196;47.422;9.656;2023-02-01T10:51:10;4.20;99.90
4366;DHT22;2196;47.422;9.656;2023-02-01T10:53:44;4.20;99.90
4366;DHT22;2196;47.422;9.656;2023-02-01T10:56:13;4.20;99.90
4366;DHT22;2196;47.422;9.656;2023-02-01T10:58:45;4.30;99.90
4366;DHT22;2196;47.422;9.656;2023-02-01T11:01:17;4.30;99.90
4366;DHT22;2196;47.422;9.656;2023-02-01T11:03:52;4.40;99.90
4366;DHT22;2196;47.422;9.656;2023-02-01T11:06:26;4.60;99.90
4366;DHT22;2196;47.422;9.656;2023-02-01T11:08:55;4.60;99.90
4366;DHT22;2196;47.422;9.656;2023-02-01T11:11:23;4.60;99.90
4366;DHT22;2196;47.422;9.656;2023-02-01T11:13:56;4.60;99.90
4366;DHT22;2196;47.422;9.656;2023-02-01T11:16:30;4.70;99.90
4366;DHT22;2196;47.422;9.656;2023-02-01T11:18:59;4.80;99.90
4366;DHT22;2196;47.422;9.656;2023-02-01T11:21:26;5.00;99.90
4366;DHT22;2196;47.422;9.656;2023-02-01T11:23:54;5.10;99.90
4366;DHT22;2196;47.422;9.656;2023-02-01T11:26:22;5.20;99.90
4366;DHT22;2196;47.422;9.656;2023-02-01T11:28:57;5.20;99.90
4366;DHT22;2196;47.422;9.656;2023-02-01T11:31:25;5.30;99.90
4366;DHT22;2196;47.422;9.656;2023-02-01T11:34:05;5.30;99.90
4366;DHT22;2196;47.422;9.656;2023-02-01T11:36:35;5.30;99.90
4366;DHT22;2196;47.422;9.656;2023-02-01T11:39:20;5.30;99.90
4366;DHT22;2196;47.422;9.656;2023-02-01T11:42:01;5.40;99.90
4366;DHT22;2196;47.422;9.656;2023-02-01T11:44:34;5.40;99.90
4366;DHT22;2196;47.422;9.656;2023-02-01T11:47:22;5.40;99.90
4366;DHT22;2196;47.422;9.656;2023-02-01T11:49:51;5.40;99.90
4366;DHT22;2196;47.422;9.656;2023-02-01T11:55:18;5.40;99.90
4366;DHT22;2196;47.422;9.656;2023-02-01T11:57:58;5.30;99.90
4366;DHT22;2196;47.422;9.656;2023-02-01T12:00:40;5.20;99.90
4366;DHT22;2196;47.422;9.656;2023-02-01T12:06:10;5.20;99.90
4366;DHT22;2196;47.422;9.656;2023-02-01T12:09:00;5.30;99.90
4366;DHT22;2196;47.422;9.656;2023-02-01T12:11:44;5.30;99.90
4366;DHT22;2196;47.422;9.656;2023-02-01T12:14:28;5.40;99.90
4366;DHT22;2196;47.422;9.656;2023-02-01T12:17:15;5.30;99.90
4366;DHT22;2196;47.422;9.656;2023-02-01T12:20:01;5.50;99.90
4366;DHT22;2196;47.422;9.656;2023-02-01T12:22:40;5.50;99.90
4366;DHT22;2196;47.422;9.656;2023-02-01T12:25:22;5.60;99.90
4366;DHT22;2196;47.422;9.656;2023-02-01T12:33:59;5.50;99.90
4366;DHT22;2196;47.422;9.656;2023-02-01T12:36:35;5.50;99.90
4366;DHT22;2196;47.422;9.656;2023-02-01T12:39:12;5.50;99.90
4366;DHT22;2196;47.422;9.656;2023-02-01T12:41:56;5.60;99.90
4366;DHT22;2196;47.422;9.656;2023-02-01T12:44:39;5.60;99.90
4366;DHT22;2196;47.422;9.656;2023-02-01T12:47:15;5.60;99.90
4366;DHT22;2196;47.422;9.656;2023-02-01T12:49:49;5.60;99.90
4366;DHT22;2196;47.422;9.656;2023-02-01T12:52:26;5.70;99.90
4366;DHT22;2196;47.422;9.656;2023-02-01T12:54:57;5.80;99.90
4366;DHT22;2196;47.422;9.656;2023-02-01T12:57:30;5.80;99.90
4366;DHT22;2196;47.422;9.656;2023-02-01T13:00:05;5.90;99.90
4366;DHT22;2196;47.422;9.656;2023-02-01T13:02:39;5.90;99.90
4366;DHT22;2196;47.422;9.656;2023-02-01T13:05:15;6.00;99.90
4366;DHT22;2196;47.422;9.656;2023-02-01T13:07:47;6.00;99.90
4366;DHT22;2196;47.422;9.656;2023-02-01T13:10:18;6.00;99.90
4366;DHT22;2196;47.422;9.656;2023-02-01T13:12:53;6.10;99.90
4366;DHT22;2196;47.422;9.656;2023-02-01T13:15:24;6.10;99.90
4366;DHT22;2196;47.422;9.656;2023-02-01T13:17:55;6.10;99.90
4366;DHT22;2196;47.422;9.656;2023-02-01T13:20:29;6.10;99.90
4366;DHT22;2196;47.422;9.656;2023-02-01T13:23:02;6.10;99.90
4366;DHT22;2196;47.422;9.656;2023-02-01T13:25:35;6.20;99.90
4366;DHT22;2196;47.422;9.656;2023-02-01T13:28:11;6.20;99.90
4366;DHT22;2196;47.422;9.656;2023-02-01T13:30:51;6.10;99.90
4366;DHT22;2196;47.422;9.656;2023-02-01T13:33:49;6.10;99.90
4366;DHT22;2196;47.422;9.656;2023-02-01T13:36:43;6.10;99.90
4366;DHT22;2196;47.422;9.656;2023-02-01T13:42:20;6.20;99.90
4366;DHT22;2196;47.422;9.656;2023-02-01T13:44:56;6.10;99.90
4366;DHT22;2196;47.422;9.656;2023-02-01T13:47:30;6.10;99.90
4366;DHT22;2196;47.422;9.656;2023-02-01T13:50:00;6.10;99.90
4366;DHT22;2196;47.422;9.656;2023-02-01T13:52:34;6.20;99.90
4366;DHT22;2196;47.422;9.656;2023-02-01T13:55:26;6.30;99.90
4366;DHT22;2196;47.422;9.656;2023-02-01T13:58:13;6.40;99.90
4366;DHT22;2196;47.422;9.656;2023-02-01T14:00:43;6.40;99.90
4366;DHT22;2196;47.422;9.656;2023-02-01T14:03:16;6.40;99.90
4366;DHT22;2196;47.422;9.656;2023-02-01T14:06:01;6.30;99.90
4366;DHT22;2196;47.422;9.656;2023-02-01T14:08:40;6.40;99.90
4366;DHT22;2196;47.422;9.656;2023-02-01T14:11:32;6.50;99.90
4366;DHT22;2196;47.422;9.656;2023-02-01T14:23:30;6.80;99.90
4366;DHT22;2196;47.422;9.656;2023-02-01T14:28:53;6.80;99.90
4366;DHT22;2196;47.422;9.656;2023-02-01T14:31:37;6.80;99.90
4366;DHT22;2196;47.422;9.656;2023-02-01T14:34:13;6.80;99.90
4366;DHT22;2196;47.422;9.656;2023-02-01T14:36:48;6.80;99.90
4366;DHT22;2196;47.422;9.656;2023-02-01T14:39:37;6.80;99.90
4366;DHT22;2196;47.422;9.656;2023-02-01T14:42:18;6.80;99.90
4366;DHT22;2196;47.422;9.656;2023-02-01T14:44:49;6.90;99.90
4366;DHT22;2196;47.422;9.656;2023-02-01T14:47:32;6.90;99.90
4366;DHT22;2196;47.422;9.656;2023-02-01T14:50:16;6.80;99.90
4366;DHT22;2196;47.422;9.656;2023-02-01T14:52:47;6.80;99.90
4366;DHT22;2196;47.422;9.656;2023-02-01T14:55:21;6.80;99.90
4366;DHT22;2196;47.422;9.656;2023-02-01T14:57:54;6.80;99.90
4366;DHT22;2196;47.422;9.656;2023-02-01T15:00:24;6.80;99.90
4366;DHT22;2196;47.422;9.656;2023-02-01T15:02:53;6.80;99.90
4366;DHT22;2196;47.422;9.656;2023-02-01T15:05:30;6.80;99.90
4366;DHT22;2196;47.422;9.656;2023-02-01T15:08:03;6.80;99.90
4366;DHT22;2196;47.422;9.656;2023-02-01T15:10:42;6.80;99.90
4366;DHT22;2196;47.422;9.656;2023-02-01T15:13:21;6.90;99.90
4366;DHT22;2196;47.422;9.656;2023-02-01T15:16:07;6.90;99.90
4366;DHT22;2196;47.422;9.656;2023-02-01T15:18:36;6.90;99.90
4366;DHT22;2196;47.422;9.656;2023-02-01T15:21:05;6.80;99.90
4366;DHT22;2196;47.422;9.656;2023-02-01T15:23:32;6.80;99.90
4366;DHT22;2196;47.422;9.656;2023-02-01T15:26:01;6.80;99.90
4366;DHT22;2196;47.422;9.656;2023-02-01T15:28:28;6.70;99.90
4366;DHT22;2196;47.422;9.656;2023-02-01T15:30:57;6.60;99.90
4366;DHT22;2196;47.422;9.656;2023-02-01T15:33:24;6.60;99.90
4366;DHT22;2196;47.422;9.656;2023-02-01T15:35:53;6.50;99.90
4366;DHT22;2196;47.422;9.656;2023-02-01T15:38:34;6.50;99.90
4366;DHT22;2196;47.422;9.656;2023-02-01T15:41:06;6.50;99.90
4366;DHT22;2196;47.422;9.656;2023-02-01T15:43:36;6.40;99.90
4366;DHT22;2196;47.422;9.656;2023-02-01T15:46:09;6.50;99.90
4366;DHT22;2196;47.422;9.656;2023-02-01T15:48:43;6.50;99.90
4366;DHT22;2196;47.422;9.656;2023-02-01T15:51:17;6.40;99.90
4366;DHT22;2196;47.422;9.656;2023-02-01T15:53:47;6.30;99.90
4366;DHT22;2196;47.422;9.656;2023-02-01T15:56:22;6.30;99.90
4366;DHT22;2196;47.422;9.656;2023-02-01T15:58:53;6.20;99.90
4366;DHT22;2196;47.422;9.656;2023-02-01T16:01:20;6.20;99.90
4366;DHT22;2196;47.422;9.656;2023-02-01T16:03:48;6.30;99.90
4366;DHT22;2196;47.422;9.656;2023-02-01T16:06:28;6.20;99.90
4366;DHT22;2196;47.422;9.656;2023-02-01T16:09:01;6.20;99.90
4366;DHT22;2196;47.422;9.656;2023-02-01T16:11:31;6.40;99.90
4366;DHT22;2196;47.422;9.656;2023-02-01T16:13:59;6.40;99.90
4366;DHT22;2196;47.422;9.656;2023-02-01T16:16:27;6.40;99.90
4366;DHT22;2196;47.422;9.656;2023-02-01T16:18:55;6.40;99.90
4366;DHT22;2196;47.422;9.656;2023-02-01T16:21:22;6.40;99.90
4366;DHT22;2196;47.422;9.656;2023-02-01T16:23:50;6.40;99.90
4366;DHT22;2196;47.422;9.656;2023-02-01T16:26:18;6.20;99.90
4366;DHT22;2196;47.422;9.656;2023-02-01T16:28:47;6.10;99.90
4366;DHT22;2196;47.422;9.656;2023-02-01T16:31:15;6.10;99.90
4366;DHT22;2196;47.422;9.656;2023-02-01T16:33:49;6.00;99.90
4366;DHT22;2196;47.422;9.656;2023-02-01T16:36:17;6.20;99.90
4366;DHT22;2196;47.422;9.656;2023-02-01T16:38:45;6.40;99.90
4366;DHT22;2196;47.422;9.656;2023-02-01T16:41:14;6.30;99.90
4366;DHT22;2196;47.422;9.656;2023-02-01T16:43:41;6.30;99.90
4366;DHT22;2196;47.422;9.656;2023-02-01T16:46:14;6.30;99.90
4366;DHT22;2196;47.422;9.656;2023-02-01T16:48:44;6.20;99.90
4366;DHT22;2196;47.422;9.656;2023-02-01T16:51:14;6.20;99.90
4366;DHT22;2196;47.422;9.656;2023-02-01T16:53:42;6.20;99.90
4366;DHT22;2196;47.422;9.656;2023-02-01T16:56:14;6.20;99.90
4366;DHT22;2196;47.422;9.656;2023-02-01T16:58:42;6.20;99.90
4366;DHT22;2196;47.422;9.656;2023-02-01T17:01:12;6.30;99.90
4366;DHT22;2196;47.422;9.656;2023-02-01T17:03:39;6.20;99.90
4366;DHT22;2196;47.422;9.656;2023-02-01T17:06:08;6.20;99.90
4366;DHT22;2196;47.422;9.656;2023-02-01T17:08:39;6.10;99.90
4366;DHT22;2196;47.422;9.656;2023-02-01T17:11:08;6.10;99.90
4366;DHT22;2196;47.422;9.656;2023-02-01T17:13:36;5.90;99.90
4366;DHT22;2196;47.422;9.656;2023-02-01T17:16:08;5.90;99.90
4366;DHT22;2196;47.422;9.656;2023-02-01T17:18:38;6.00;99.90
4366;DHT22;2196;47.422;9.656;2023-02-01T17:21:05;5.90;99.90